Terminal Aerodrome Forecast
Issued by NWS North Platte, NE

Home | Current Version | Previous Version | Text Only | Print | Product List | Glossary Off
Versions: 1 2 3 4 5 6 7 8 9 10 11 12 13 14

427
FTUS43 KLBF 221722
TAFVTN
TAF
KVTN 221722Z 2218/2318 19015G21KT P6SM SCT250
     FM230400 18016G23KT P6SM SCT220 WS020/19045KT
     FM231200 20012G18KT P6SM FEW250
     FM231700 23009KT P6SM FEW250=

USA.gov is the U.S. government's official web portal to all federal, state and local government web resources and services.